Time;durP1;ratioP1;P1;durP2;ratioP2;P2;SDS_P1;SDS_P2;PMS_P1;PMS_P2;Temp;Humidity;BMP_temperature;BMP_pressure;BME280_temperature;BME280_humidity;BME280_pressure;Samples;Min_cycle;Max_cycle;Signal;HPM_P1;HPM_P2
2023/04/11 00:02:16;;;;;;;9.35;3.58;;;8.90;99.90;;;;;;6335647;22;20037;-77
2023/04/11 00:04:42;;;;;;;5.18;1.70;;;8.80;99.90;;;;;;6363724;22;20030;-77
2023/04/11 00:07:08;;;;;;;3.53;1.30;;;8.80;99.90;;;;;;6364094;22;20474;-78
2023/04/11 00:09:34;;;;;;;4.03;1.85;;;8.80;99.90;;;;;;6335696;22;20018;-78
2023/04/11 00:12:03;;;;;;;3.88;1.63;;;8.80;99.90;;;;;;6363029;22;20056;-77
2023/04/11 00:14:33;;;;;;;4.45;1.50;;;8.80;99.90;;;;;;6363988;22;20026;-75
2023/04/11 00:17:02;;;;;;;3.08;1.48;;;8.80;99.90;;;;;;6363512;22;20025;-74
2023/04/11 00:19:28;;;;;;;2.90;1.40;;;8.80;99.90;;;;;;6364157;22;20037;-76
2023/04/11 00:21:57;;;;;;;4.30;1.45;;;8.70;99.90;;;;;;6309531;22;20029;-75
2023/04/11 00:24:24;;;;;;;2.80;1.30;;;8.70;99.90;;;;;;6335579;22;20010;-75
2023/04/11 00:26:50;;;;;;;6.20;1.67;;;8.60;99.90;;;;;;6363252;22;20174;-75
2023/04/11 00:29:16;;;;;;;3.25;1.40;;;8.50;99.90;;;;;;6335309;22;20064;-75
2023/04/11 00:31:41;;;;;;;4.20;1.33;;;8.40;99.90;;;;;;6363626;22;20014;-74
2023/04/11 00:34:07;;;;;;;4.38;1.60;;;8.50;99.90;;;;;;6335084;22;20371;-74
2023/04/11 00:36:33;;;;;;;3.72;1.05;;;8.30;99.90;;;;;;6335423;22;20014;-74
2023/04/11 00:39:00;;;;;;;3.38;1.25;;;8.30;99.90;;;;;;6334776;22;20380;-74
2023/04/11 00:41:26;;;;;;;1.95;1.42;;;8.30;99.90;;;;;;6334061;22;20067;-74
2023/04/11 00:43:53;;;;;;;7.28;1.85;;;8.40;99.90;;;;;;6334765;22;20021;-73
2023/04/11 00:46:20;;;;;;;2.08;1.50;;;8.30;99.90;;;;;;6362978;22;20095;-73
2023/04/11 00:48:47;;;;;;;2.15;1.33;;;8.30;99.90;;;;;;6362277;22;20109;-74
2023/04/11 00:51:17;;;;;;;1.70;1.30;;;8.30;99.90;;;;;;6307759;22;20018;-74
2023/04/11 00:53:44;;;;;;;2.33;1.40;;;8.30;99.90;;;;;;6362762;22;20025;-74
2023/04/11 00:56:10;;;;;;;2.80;1.52;;;8.20;99.90;;;;;;6334698;22;20010;-74
2023/04/11 00:58:37;;;;;;;5.28;2.17;;;8.40;99.90;;;;;;6363268;22;20279;-75
2023/04/11 01:01:08;;;;;;;4.18;1.63;;;8.40;99.90;;;;;;6362439;22;20033;-75
2023/04/11 01:03:38;;;;;;;5.25;1.80;;;8.40;99.90;;;;;;6308699;22;20379;-74
2023/04/11 01:06:09;;;;;;;5.85;1.63;;;8.40;99.90;;;;;;6334465;22;20026;-75
2023/04/11 01:08:36;;;;;;;4.68;1.92;;;8.30;99.90;;;;;;6363218;22;20049;-74
2023/04/11 01:11:02;;;;;;;5.13;2.13;;;8.20;99.90;;;;;;6362660;22;20091;-75
2023/04/11 01:13:30;;;;;;;7.72;3.00;;;8.30;99.90;;;;;;6334518;22;20525;-74
2023/04/11 01:15:56;;;;;;;15.13;2.90;;;8.10;99.90;;;;;;6362676;22;20011;-73
2023/04/11 01:18:22;;;;;;;5.78;2.28;;;8.20;99.90;;;;;;6363196;22;20049;-74
2023/04/11 01:20:49;;;;;;;5.60;2.75;;;8.20;99.90;;;;;;6335065;22;20468;-74
2023/04/11 01:23:21;;;;;;;9.25;3.90;;;8.20;99.90;;;;;;6363314;22;20398;-74
2023/04/11 01:25:47;;;;;;;10.07;4.95;;;8.20;99.90;;;;;;6363412;22;20014;-75
2023/04/11 01:28:13;;;;;;;15.35;4.80;;;8.10;99.90;;;;;;6363417;22;20011;-73
2023/04/11 01:30:39;;;;;;;12.88;4.80;;;8.20;99.90;;;;;;6335631;22;20083;-73
2023/04/11 01:33:04;;;;;;;13.65;5.22;;;8.10;99.90;;;;;;6365528;22;20313;-75
2023/04/11 01:35:30;;;;;;;10.80;4.63;;;8.10;99.90;;;;;;6337206;22;20461;-74
2023/04/11 01:37:56;;;;;;;12.50;4.75;;;8.10;99.90;;;;;;6365251;22;20046;-75
2023/04/11 01:40:22;;;;;;;11.48;4.25;;;8.10;99.90;;;;;;6336397;22;20026;-74
2023/04/11 01:42:50;;;;;;;12.88;5.00;;;8.10;99.90;;;;;;6365372;22;20018;-74
2023/04/11 01:45:17;;;;;;;9.63;4.25;;;8.20;99.90;;;;;;6336847;22;20091;-74
2023/04/11 01:47:44;;;;;;;9.95;4.22;;;8.10;99.90;;;;;;6365302;22;20014;-75
2023/04/11 01:50:10;;;;;;;9.48;3.83;;;8.20;99.90;;;;;;6365079;22;20053;-74
2023/04/11 01:52:36;;;;;;;11.20;3.70;;;8.20;99.90;;;;;;6336788;22;20022;-73
2023/04/11 01:55:02;;;;;;;12.98;3.72;;;8.10;99.90;;;;;;6336448;22;20029;-74
2023/04/11 01:57:28;;;;;;;7.20;3.80;;;8.20;99.90;;;;;;6365297;22;20018;-74
2023/04/11 01:59:54;;;;;;;8.93;3.33;;;8.20;99.90;;;;;;6310635;22;20462;-76
2023/04/11 02:02:19;;;;;;;10.35;2.95;;;8.30;99.90;;;;;;6336512;22;20045;-76
2023/04/11 02:04:45;;;;;;;6.57;2.55;;;8.20;99.90;;;;;;6364958;22;20014;-76
2023/04/11 02:07:11;;;;;;;10.73;4.50;;;8.20;99.90;;;;;;6364559;22;20091;-76
2023/04/11 02:09:36;;;;;;;9.50;2.85;;;8.20;99.90;;;;;;6336384;22;20021;-76
2023/04/11 02:12:02;;;;;;;8.52;2.63;;;8.20;99.90;;;;;;6364967;22;20019;-76
2023/04/11 02:14:39;;;;;;;11.77;3.60;;;8.10;99.90;;;;;;6336017;22;20094;-74
2023/04/11 02:17:08;;;;;;;5.63;3.10;;;8.20;99.90;;;;;;6364558;22;20437;-75
2023/04/11 02:19:35;;;;;;;6.30;2.47;;;8.20;99.90;;;;;;6364566;22;20067;-74
2023/04/11 02:22:01;;;;;;;6.03;2.60;;;8.20;99.90;;;;;;6364265;22;20017;-75
2023/04/11 02:24:29;;;;;;;10.48;2.53;;;8.10;99.90;;;;;;6336201;22;20068;-75
2023/04/11 02:26:56;;;;;;;8.15;2.95;;;8.00;99.90;;;;;;6335832;22;20417;-75
2023/04/11 02:29:21;;;;;;;8.15;3.40;;;8.10;99.90;;;;;;6364340;22;20071;-75
2023/04/11 02:31:48;;;;;;;8.95;2.67;;;8.10;99.90;;;;;;6336194;22;20060;-74
2023/04/11 02:34:14;;;;;;;7.70;3.20;;;8.20;99.90;;;;;;6364568;22;20018;-74
2023/04/11 02:36:41;;;;;;;12.45;3.42;;;8.10;99.90;;;;;;6335852;22;20523;-74
2023/04/11 02:39:06;;;;;;;8.73;4.20;;;8.10;99.90;;;;;;6335878;22;20387;-74
2023/04/11 02:41:32;;;;;;;18.52;4.80;;;8.20;99.90;;;;;;6335443;22;20026;-75
2023/04/11 02:43:58;;;;;;;11.23;2.53;;;8.30;99.90;;;;;;6336257;22;20459;-75
2023/04/11 02:46:24;;;;;;;11.88;3.00;;;8.40;99.90;;;;;;6336746;22;20075;-75
2023/04/11 02:48:50;;;;;;;12.88;2.90;;;8.40;99.90;;;;;;6335758;22;20029;-76
2023/04/11 02:51:15;;;;;;;8.63;2.97;;;8.40;99.90;;;;;;6335796;22;20473;-75
2023/04/11 02:53:41;;;;;;;10.63;3.47;;;8.30;99.90;;;;;;6335558;22;20098;-75
2023/04/11 02:56:10;;;;;;;10.15;3.13;;;8.40;99.90;;;;;;6335782;22;20022;-75
2023/04/11 02:58:40;;;;;;;6.75;2.88;;;8.40;99.90;;;;;;6335897;22;20018;-75
2023/04/11 03:01:10;;;;;;;8.75;2.60;;;8.40;99.90;;;;;;6335599;22;20022;-77
2023/04/11 03:03:35;;;;;;;11.30;2.55;;;8.50;99.90;;;;;;6336206;22;20010;-78
2023/04/11 03:06:01;;;;;;;8.68;2.67;;;8.50;99.90;;;;;;6335769;22;20550;-79
2023/04/11 03:08:27;;;;;;;11.63;2.75;;;8.50;99.90;;;;;;6336257;22;20099;-78
2023/04/11 03:10:52;;;;;;;12.93;2.65;;;8.60;99.90;;;;;;6336269;22;20020;-77
2023/04/11 03:13:18;;;;;;;17.75;3.20;;;8.60;99.90;;;;;;6336253;22;20453;-76
2023/04/11 03:15:43;;;;;;;13.27;2.90;;;8.60;99.90;;;;;;6364573;22;20424;-75
2023/04/11 03:18:09;;;;;;;10.55;3.28;;;8.60;99.90;;;;;;6364192;22;20018;-75
2023/04/11 03:20:35;;;;;;;8.23;2.72;;;8.60;99.90;;;;;;6335525;22;20018;-74
2023/04/11 03:23:00;;;;;;;9.18;2.55;;;8.60;99.90;;;;;;6335714;22;20022;-75
2023/04/11 03:25:27;;;;;;;11.00;2.85;;;8.50;99.90;;;;;;6336556;22;20045;-75
2023/04/11 03:27:52;;;;;;;7.78;2.42;;;8.60;99.90;;;;;;6364160;22;20098;-75
2023/04/11 03:30:18;;;;;;;14.20;2.90;;;8.60;99.90;;;;;;6363880;22;20398;-75
2023/04/11 03:32:44;;;;;;;11.63;2.92;;;8.60;99.90;;;;;;6364022;22;20014;-75
2023/04/11 03:35:10;;;;;;;10.50;2.55;;;8.60;99.90;;;;;;6309306;22;20290;-75
2023/04/11 03:37:35;;;;;;;7.43;2.50;;;8.60;99.90;;;;;;6335647;22;20030;-74
2023/04/11 03:40:02;;;;;;;9.48;2.97;;;8.60;99.90;;;;;;6364131;22;20119;-75
2023/04/11 03:42:28;;;;;;;10.55;2.72;;;8.70;99.90;;;;;;6363886;22;20135;-75
2023/04/11 03:44:54;;;;;;;10.10;2.38;;;8.70;99.90;;;;;;6335760;22;20033;-75
2023/04/11 03:47:19;;;;;;;12.98;3.15;;;8.60;99.90;;;;;;6363574;22;20012;-75
2023/04/11 03:49:45;;;;;;;13.25;2.45;;;8.60;99.90;;;;;;6363202;22;20018;-75
2023/04/11 03:52:13;;;;;;;11.07;2.20;;;8.60;99.90;;;;;;6363920;22;20093;-75
2023/04/11 03:54:39;;;;;;;5.30;1.98;;;8.70;99.90;;;;;;6363892;22;20022;-75
2023/04/11 03:57:05;;;;;;;7.80;2.22;;;8.70;99.90;;;;;;6363961;22;20109;-75
2023/04/11 03:59:31;;;;;;;6.60;2.00;;;8.70;99.90;;;;;;6335712;22;20025;-75
2023/04/11 04:01:56;;;;;;;6.43;2.42;;;8.70;99.90;;;;;;6334798;22;20030;-75
2023/04/11 04:04:22;;;;;;;9.15;3.15;;;8.60;99.90;;;;;;6334944;22;20033;-74
2023/04/11 04:06:48;;;;;;;11.85;2.20;;;8.70;99.90;;;;;;6335498;22;20374;-74
2023/04/11 04:09:14;;;;;;;9.18;2.00;;;8.70;99.90;;;;;;6335153;22;20026;-73
2023/04/11 04:11:39;;;;;;;11.90;2.92;;;8.70;99.90;;;;;;6335424;22;20022;-75
2023/04/11 04:14:05;;;;;;;11.90;2.33;;;8.80;99.90;;;;;;6335539;22;20014;-75
2023/04/11 04:16:31;;;;;;;9.65;2.22;;;8.80;99.90;;;;;;6363912;22;20085;-74
2023/04/11 04:18:56;;;;;;;3.75;2.10;;;8.80;99.90;;;;;;6363290;22;20040;-74
2023/04/11 04:21:25;;;;;;;12.43;2.10;;;8.80;99.90;;;;;;6363767;22;20044;-74
2023/04/11 04:23:52;;;;;;;9.98;2.70;;;8.80;99.90;;;;;;6335210;22;20036;-74
2023/04/11 04:26:23;;;;;;;9.30;2.92;;;8.80;99.90;;;;;;6363649;22;20462;-74
2023/04/11 04:28:49;;;;;;;7.97;2.10;;;8.80;99.90;;;;;;6335674;22;20026;-74
2023/04/11 04:31:20;;;;;;;9.27;2.33;;;8.80;99.90;;;;;;6335664;22;20029;-73
2023/04/11 04:33:48;;;;;;;7.73;2.30;;;8.80;99.90;;;;;;6363723;22;20014;-75
2023/04/11 04:36:16;;;;;;;13.05;2.42;;;8.80;99.90;;;;;;6335578;22;20106;-75
2023/04/11 04:38:43;;;;;;;9.68;2.67;;;8.80;99.90;;;;;;6363716;22;20379;-74
2023/04/11 04:41:14;;;;;;;6.43;1.90;;;8.80;99.90;;;;;;6334870;22;20018;-74
2023/04/11 04:43:41;;;;;;;11.85;2.17;;;8.80;99.90;;;;;;6363885;22;20011;-73
2023/04/11 04:46:07;;;;;;;14.75;3.42;;;8.90;99.90;;;;;;6363717;22;20036;-75
2023/04/11 04:48:32;;;;;;;12.73;3.00;;;8.90;99.90;;;;;;6362910;22;20109;-74
2023/04/11 04:50:58;;;;;;;10.60;2.97;;;8.90;99.90;;;;;;6363651;22;20026;-74
2023/04/11 04:53:24;;;;;;;10.93;2.38;;;8.90;99.90;;;;;;6336061;22;20030;-75
2023/04/11 04:55:50;;;;;;;7.03;2.60;;;8.80;99.90;;;;;;6335685;22;20025;-74
2023/04/11 04:58:15;;;;;;;6.68;2.72;;;8.80;99.90;;;;;;6363931;22;20019;-74
2023/04/11 05:00:41;;;;;;;9.43;3.38;;;8.90;99.90;;;;;;6363468;22;20384;-75
2023/04/11 05:03:07;;;;;;;13.43;4.53;;;8.90;99.90;;;;;;6334722;22;20022;-74
2023/04/11 05:05:33;;;;;;;7.10;3.33;;;8.80;99.90;;;;;;6363072;22;20025;-75
2023/04/11 05:07:59;;;;;;;10.63;3.63;;;8.90;99.90;;;;;;6334658;22;20105;-73
2023/04/11 05:10:25;;;;;;;5.63;2.58;;;8.80;99.90;;;;;;6363381;22;20085;-74
2023/04/11 05:12:52;;;;;;;12.32;3.13;;;8.80;99.90;;;;;;6334791;22;20765;-74
2023/04/11 05:15:20;;;;;;;11.73;4.07;;;8.90;99.90;;;;;;6334746;22;20033;-74
2023/04/11 05:17:45;;;;;;;11.43;3.95;;;8.90;99.90;;;;;;6334460;22;20100;-74
2023/04/11 05:20:12;;;;;;;3.70;2.60;;;8.80;99.90;;;;;;6334907;22;20026;-74
2023/04/11 05:22:38;;;;;;;10.35;2.53;;;8.80;99.90;;;;;;6334683;22;20033;-74
2023/04/11 05:25:04;;;;;;;8.35;3.00;;;8.80;99.90;;;;;;6363125;22;20337;-74
2023/04/11 05:27:30;;;;;;;8.05;3.13;;;8.80;99.90;;;;;;6363028;22;20512;-74
2023/04/11 05:29:55;;;;;;;7.85;2.40;;;8.80;99.90;;;;;;6335166;22;20141;-74
2023/04/11 05:32:21;;;;;;;4.72;2.95;;;8.80;99.90;;;;;;6334999;22;20333;-74
2023/04/11 05:34:52;;;;;;;3.08;2.10;;;8.80;99.90;;;;;;6363267;22;20030;-75
2023/04/11 05:37:18;;;;;;;4.85;2.25;;;8.80;99.90;;;;;;6334827;22;20061;-75
2023/04/11 05:39:43;;;;;;;4.90;2.00;;;8.80;99.90;;;;;;6334664;22;20099;-75
2023/04/11 05:42:09;;;;;;;9.68;2.58;;;8.80;99.90;;;;;;6334551;22;20089;-75
2023/04/11 05:44:35;;;;;;;4.55;2.38;;;8.80;99.90;;;;;;6334864;22;20345;-75
2023/04/11 05:47:00;;;;;;;9.10;2.03;;;8.80;99.90;;;;;;6334403;22;20021;-75
2023/04/11 05:49:26;;;;;;;17.08;5.07;;;8.80;99.90;;;;;;6334589;22;20030;-75
2023/04/11 05:51:52;;;;;;;11.50;2.20;;;8.70;99.90;;;;;;6334793;22;20101;-75
2023/04/11 05:54:34;;;;;;;5.88;1.80;;;8.80;99.90;;;;;;6363288;22;20018;-76
2023/04/11 05:57:01;;;;;;;8.00;1.90;;;8.80;99.90;;;;;;6334818;22;20037;-75
2023/04/11 05:59:29;;;;;;;8.20;2.55;;;8.90;99.90;;;;;;6334615;22;20317;-75
2023/04/11 06:01:55;;;;;;;5.18;2.13;;;8.80;99.90;;;;;;6334560;22;20037;-75
2023/04/11 06:04:21;;;;;;;5.63;2.13;;;8.90;99.90;;;;;;6362790;22;20011;-75
2023/04/11 06:06:46;;;;;;;10.98;2.75;;;8.90;99.90;;;;;;6362843;22;20026;-75
2023/04/11 06:09:12;;;;;;;10.88;2.70;;;8.90;99.90;;;;;;6362598;22;20037;-76
2023/04/11 06:11:38;;;;;;;7.07;2.22;;;8.90;99.90;;;;;;6334699;22;20409;-75
2023/04/11 06:14:04;;;;;;;6.72;1.80;;;8.90;99.90;;;;;;6334428;22;20026;-76
2023/04/11 06:16:31;;;;;;;5.53;2.10;;;8.90;99.90;;;;;;6334513;22;20033;-75
2023/04/11 06:18:57;;;;;;;10.10;2.13;;;9.00;99.90;;;;;;6336632;22;20079;-75
2023/04/11 06:21:23;;;;;;;8.63;2.33;;;8.90;99.90;;;;;;6336230;22;20018;-75
2023/04/11 06:23:49;;;;;;;10.18;2.33;;;9.00;99.90;;;;;;6336160;22;20022;-74
2023/04/11 06:26:14;;;;;;;5.45;2.03;;;9.00;99.90;;;;;;6364513;22;20429;-71
2023/04/11 06:28:40;;;;;;;8.40;2.47;;;8.90;99.90;;;;;;6364545;22;20044;-72
2023/04/11 06:31:07;;;;;;;4.40;2.28;;;9.00;99.90;;;;;;6364769;22;20018;-73
2023/04/11 06:33:33;;;;;;;13.45;3.78;;;9.00;99.90;;;;;;6336136;22;20018;-73
2023/04/11 06:35:59;;;;;;;7.43;2.35;;;9.00;99.90;;;;;;6364026;22;20051;-75
2023/04/11 06:38:24;;;;;;;10.82;2.25;;;9.00;99.90;;;;;;6364147;22;20018;-75
2023/04/11 06:40:51;;;;;;;10.35;2.58;;;9.10;99.90;;;;;;6309677;22;20188;-75
2023/04/11 06:43:16;;;;;;;7.45;2.17;;;9.00;99.90;;;;;;6335777;22;20522;-75
2023/04/11 06:45:42;;;;;;;5.53;2.00;;;9.10;99.90;;;;;;6364731;22;20048;-72
2023/04/11 06:48:08;;;;;;;7.13;2.30;;;9.10;99.90;;;;;;6364554;22;20093;-71
2023/04/11 06:50:38;;;;;;;9.25;3.85;;;9.00;99.90;;;;;;6336499;22;20480;-71
2023/04/11 06:53:04;;;;;;;9.00;2.90;;;9.10;99.90;;;;;;6335709;22;20038;-72
2023/04/11 06:55:29;;;;;;;8.57;1.83;;;9.10;99.90;;;;;;6363697;22;20341;-71
2023/04/11 06:57:55;;;;;;;4.30;1.88;;;9.00;99.90;;;;;;6364092;22;20041;-75
2023/04/11 07:00:21;;;;;;;8.82;2.30;;;9.00;99.90;;;;;;6363705;22;20056;-75
2023/04/11 07:02:46;;;;;;;13.23;2.03;;;9.00;99.90;;;;;;6364138;22;20154;-71
2023/04/11 07:05:12;;;;;;;11.45;2.67;;;9.10;99.90;;;;;;6363634;22;20018;-73
2023/04/11 07:07:38;;;;;;;7.57;2.30;;;9.10;99.90;;;;;;6364236;22;20014;-72
2023/04/11 07:10:05;;;;;;;7.68;2.25;;;9.10;99.90;;;;;;6364109;22;20014;-72
2023/04/11 07:12:30;;;;;;;6.82;2.15;;;9.10;99.90;;;;;;6363830;22;20022;-74
2023/04/11 07:14:56;;;;;;;7.15;2.15;;;9.10;99.90;;;;;;6336241;22;20022;-72
2023/04/11 07:17:22;;;;;;;7.55;2.33;;;9.20;99.90;;;;;;6336158;22;20079;-75
2023/04/11 07:19:47;;;;;;;6.55;2.10;;;9.20;99.90;;;;;;6336034;22;20336;-74
2023/04/11 07:22:13;;;;;;;6.13;1.92;;;9.20;99.90;;;;;;6336028;22;20022;-75
2023/04/11 07:24:41;;;;;;;12.00;4.07;;;9.30;99.90;;;;;;6364236;22;20026;-74
2023/04/11 07:27:06;;;;;;;8.57;3.58;;;9.40;99.90;;;;;;6335618;22;20029;-73
2023/04/11 07:29:32;;;;;;;9.43;2.10;;;9.40;99.90;;;;;;6363500;22;20431;-74
2023/04/11 07:31:58;;;;;;;8.10;2.10;;;9.50;99.90;;;;;;6335901;22;20030;-75
2023/04/11 07:34:24;;;;;;;12.43;3.50;;;9.50;99.90;;;;;;6336467;22;20026;-75
2023/04/11 07:36:49;;;;;;;8.02;1.92;;;9.40;99.90;;;;;;6365289;22;20106;-74
2023/04/11 07:39:15;;;;;;;6.95;1.88;;;9.30;99.90;;;;;;6337325;22;20033;-74
2023/04/11 07:41:41;;;;;;;10.07;1.90;;;9.30;99.90;;;;;;6336867;22;20308;-74
2023/04/11 07:44:08;;;;;;;7.82;2.40;;;9.30;99.90;;;;;;6337467;22;20028;-74
2023/04/11 07:46:34;;;;;;;7.40;1.65;;;9.20;99.90;;;;;;6310951;22;20014;-72
2023/04/11 07:49:00;;;;;;;6.88;3.25;;;9.10;99.90;;;;;;6364664;22;20022;-71
2023/04/11 07:51:26;;;;;;;8.40;1.70;;;9.10;99.90;;;;;;6337784;22;20037;-77
2023/04/11 07:53:53;;;;;;;6.57;2.17;;;9.20;99.90;;;;;;6337481;22;20191;-78
2023/04/11 07:56:18;;;;;;;7.20;2.70;;;9.20;99.90;;;;;;6336541;22;20034;-74
2023/04/11 07:58:44;;;;;;;6.03;2.33;;;9.20;99.90;;;;;;6336471;22;20030;-73
2023/04/11 08:01:21;;;;;;;9.82;3.13;;;9.30;99.90;;;;;;6364576;22;20022;-73
2023/04/11 08:03:47;;;;;;;7.68;2.35;;;9.30;99.90;;;;;;6364490;22;20022;-73
2023/04/11 08:06:12;;;;;;;12.25;2.05;;;9.20;99.90;;;;;;6364421;22;20046;-80
2023/04/11 08:08:38;;;;;;;5.13;1.90;;;9.30;99.90;;;;;;6310327;22;20030;-81
2023/04/11 08:11:04;;;;;;;13.45;2.20;;;9.30;99.90;;;;;;6336356;22;20535;-81
2023/04/11 08:13:29;;;;;;;9.75;2.05;;;9.40;99.90;;;;;;6336325;22;20402;-83
2023/04/11 08:15:55;;;;;;;4.93;2.20;;;9.50;99.90;;;;;;6336010;22;20029;-83
2023/04/11 08:18:22;;;;;;;8.73;2.13;;;9.50;99.90;;;;;;6336141;22;20809;-77
2023/04/11 08:20:47;;;;;;;7.80;2.28;;;9.50;99.90;;;;;;6364195;22;20034;-75
2023/04/11 08:23:14;;;;;;;9.15;3.17;;;9.60;99.90;;;;;;6363942;22;20018;-76
2023/04/11 08:25:40;;;;;;;7.63;2.20;;;9.70;99.90;;;;;;6335287;22;20022;-75
2023/04/11 08:28:08;;;;;;;7.60;2.22;;;9.80;99.90;;;;;;6363521;22;20019;-75
2023/04/11 08:30:34;;;;;;;4.72;2.42;;;9.90;99.90;;;;;;6335400;22;20026;-75
2023/04/11 08:33:00;;;;;;;7.78;2.80;;;10.00;99.90;;;;;;6363933;22;20049;-75
2023/04/11 08:35:26;;;;;;;6.40;2.42;;;10.00;99.90;;;;;;6336265;22;20034;-75
2023/04/11 08:37:52;;;;;;;10.77;3.65;;;10.10;99.90;;;;;;6335602;22;20098;-75
2023/04/11 08:40:18;;;;;;;8.75;2.72;;;10.10;99.90;;;;;;6362894;22;20019;-74
2023/04/11 08:42:45;;;;;;;8.68;3.20;;;10.10;99.90;;;;;;6363302;22;20018;-75
2023/04/11 08:45:11;;;;;;;6.28;2.38;;;10.20;99.90;;;;;;6335376;22;20139;-75
2023/04/11 08:47:36;;;;;;;11.98;3.47;;;10.20;99.90;;;;;;6334859;22;20352;-74
2023/04/11 08:50:03;;;;;;;8.13;2.55;;;10.20;99.90;;;;;;6335249;22;20022;-75
2023/04/11 08:52:30;;;;;;;9.07;2.90;;;10.20;99.90;;;;;;6363227;22;20098;-75
2023/04/11 08:54:56;;;;;;;9.73;2.38;;;10.10;99.90;;;;;;6363016;22;20018;-75
2023/04/11 08:57:33;;;;;;;9.90;2.67;;;10.00;99.90;;;;;;6335318;22;20026;-74
2023/04/11 09:00:12;;;;;;;10.63;2.83;;;10.00;99.90;;;;;;6335232;22;20034;-75
2023/04/11 09:03:07;;;;;;;7.72;2.03;;;10.20;99.90;;;;;;6364029;22;20032;-75
2023/04/11 09:05:37;;;;;;;6.38;2.20;;;10.20;99.90;;;;;;6335502;22;20022;-75
2023/04/11 09:08:10;;;;;;;6.28;2.08;;;10.30;99.90;;;;;;6334839;22;20150;-75
2023/04/11 09:10:37;;;;;;;11.52;3.13;;;10.40;99.90;;;;;;6363060;22;20090;-75
2023/04/11 09:13:17;;;;;;;5.45;2.45;;;10.40;99.90;;;;;;6363269;22;20018;-75
2023/04/11 09:15:43;;;;;;;6.22;1.95;;;10.50;99.90;;;;;;6335329;22;20029;-75
2023/04/11 09:18:08;;;;;;;6.53;2.55;;;10.50;99.90;;;;;;6335158;22;20054;-75
2023/04/11 09:20:34;;;;;;;6.90;1.90;;;10.40;99.90;;;;;;6335076;22;20026;-74
2023/04/11 09:23:00;;;;;;;5.68;1.90;;;10.20;99.90;;;;;;6362597;22;20128;-74
2023/04/11 09:25:26;;;;;;;4.40;1.50;;;9.90;99.90;;;;;;6363264;22;20461;-74
2023/04/11 09:28:09;;;;;;;4.40;1.48;;;9.90;99.90;;;;;;6334642;22;20079;-74
2023/04/11 09:30:35;;;;;;;;;;;9.90;99.90;;;;;;6335335;22;20057;-73
2023/04/11 09:33:21;;;;;;;8.02;1.77;;;9.80;99.90;;;;;;6334951;22;19914;-74
2023/04/11 09:35:49;;;;;;;5.93;2.05;;;9.70;99.90;;;;;;6363544;22;20018;-72
2023/04/11 09:38:35;;;;;;;7.22;1.90;;;9.80;99.90;;;;;;6362866;22;20349;-72
2023/04/11 09:41:02;;;;;;;8.30;2.50;;;9.70;99.90;;;;;;6362192;22;20463;-74
2023/04/11 09:43:49;;;;;;;5.35;1.33;;;9.70;99.90;;;;;;6363060;22;20014;-74
2023/04/11 09:46:19;;;;;;;6.43;1.75;;;9.80;99.90;;;;;;6362836;22;20409;-74
2023/04/11 09:48:48;;;;;;;9.23;1.90;;;9.80;99.90;;;;;;6334251;22;20084;-73
2023/04/11 09:51:15;;;;;;;7.07;2.15;;;10.00;99.90;;;;;;6334500;22;20021;-74
2023/04/11 09:53:41;;;;;;;7.65;2.38;;;10.10;99.90;;;;;;6336018;22;20037;-74
2023/04/11 09:56:08;;;;;;;8.95;2.78;;;10.20;99.90;;;;;;6336230;22;20722;-74
2023/04/11 09:58:35;;;;;;;9.98;2.47;;;10.10;99.90;;;;;;6364459;22;20022;-74
2023/04/11 10:01:02;;;;;;;6.55;2.33;;;10.10;99.90;;;;;;6336202;22;20022;-74
2023/04/11 10:03:33;;;;;;;10.95;2.33;;;10.10;99.90;;;;;;6364271;22;20407;-74
2023/04/11 10:06:01;;;;;;;5.55;2.22;;;10.10;99.90;;;;;;6364678;22;20116;-74
2023/04/11 10:08:32;;;;;;;9.85;3.38;;;10.20;99.90;;;;;;6364606;22;20037;-75
2023/04/11 10:10:59;;;;;;;4.88;2.00;;;10.20;99.90;;;;;;6364435;22;20010;-73
2023/04/11 10:13:38;;;;;;;2.95;1.80;;;10.20;99.90;;;;;;6364353;22;20071;-73
2023/04/11 10:16:08;;;;;;;5.18;2.17;;;10.00;99.90;;;;;;6364454;22;20034;-72
2023/04/11 10:18:35;;;;;;;10.40;3.42;;;9.80;99.90;;;;;;6336187;22;20127;-72
2023/04/11 10:21:00;;;;;;;10.80;3.83;;;9.70;99.90;;;;;;6364427;22;20294;-71
2023/04/11 10:23:26;;;;;;;6.95;2.05;;;9.70;99.90;;;;;;6336598;22;20015;-72
2023/04/11 10:25:59;;;;;;;6.43;2.25;;;9.80;99.90;;;;;;6364943;22;20014;-72
2023/04/11 10:28:30;;;;;;;9.95;2.30;;;9.80;99.90;;;;;;6336605;22;20413;-73
2023/04/11 10:31:08;;;;;;;5.33;1.83;;;9.80;99.90;;;;;;6364572;22;20026;-71
2023/04/11 10:33:36;;;;;;;9.25;2.28;;;9.80;99.90;;;;;;6365065;22;20405;-71
2023/04/11 10:36:02;;;;;;;12.40;2.38;;;9.70;99.90;;;;;;6364561;22;20082;-71
2023/04/11 10:38:40;;;;;;;8.23;1.88;;;9.70;99.90;;;;;;6364768;22;20071;-72
2023/04/11 10:41:27;;;;;;;9.30;2.88;;;9.70;99.90;;;;;;6364556;22;20015;-71
2023/04/11 10:44:13;;;;;;;5.25;2.50;;;9.70;99.90;;;;;;6337181;22;20429;-72
2023/04/11 10:46:46;;;;;;;13.38;2.53;;;9.70;99.90;;;;;;6364610;22;20064;-71
2023/04/11 10:49:29;;;;;;;5.15;2.05;;;9.70;99.90;;;;;;6364358;22;20113;-72
2023/04/11 10:52:20;;;;;;;5.72;2.00;;;9.80;99.90;;;;;;6364540;22;20445;-72
2023/04/11 10:54:46;;;;;;;6.03;1.58;;;9.80;99.90;;;;;;6364579;22;20006;-72
2023/04/11 10:57:12;;;;;;;7.00;1.63;;;9.80;99.90;;;;;;6364793;22;20006;-71
2023/04/11 10:59:38;;;;;;;5.60;1.63;;;9.60;99.90;;;;;;6364785;22;20177;-71
2023/04/11 11:02:04;;;;;;;4.30;1.77;;;9.70;99.90;;;;;;6364261;22;20498;-72
2023/04/11 11:04:34;;;;;;;4.70;1.90;;;9.70;99.90;;;;;;6335846;22;20033;-72
2023/04/11 11:07:05;;;;;;;11.60;2.13;;;9.80;99.90;;;;;;6364641;22;20036;-71
2023/04/11 11:09:31;;;;;;;8.32;1.80;;;9.90;99.90;;;;;;6336254;22;20017;-72
2023/04/11 11:12:11;;;;;;;8.18;1.92;;;10.00;99.90;;;;;;6364682;22;20356;-71
2023/04/11 11:14:39;;;;;;;7.65;1.95;;;10.10;99.90;;;;;;6364640;22;20022;-72
2023/04/11 11:17:05;;;;;;;6.93;1.88;;;10.20;99.90;;;;;;6336139;22;20339;-71
2023/04/11 11:19:31;;;;;;;6.57;1.88;;;10.20;99.90;;;;;;6335705;22;20018;-72
2023/04/11 11:22:02;;;;;;;9.00;2.42;;;10.30;99.90;;;;;;6335797;22;20048;-71
2023/04/11 11:24:28;;;;;;;4.95;1.83;;;10.40;99.90;;;;;;6364353;22;20026;-72
2023/04/11 11:26:55;;;;;;;7.18;2.08;;;10.50;99.90;;;;;;6364209;22;20057;-72
2023/04/11 11:29:35;;;;;;;8.68;2.20;;;10.50;99.90;;;;;;6363866;22;20010;-72
2023/04/11 11:32:04;;;;;;;7.82;1.95;;;10.50;99.90;;;;;;6335518;22;20077;-72
2023/04/11 11:34:32;;;;;;;13.98;2.80;;;10.60;99.90;;;;;;6363527;22;20416;-72
2023/04/11 11:37:00;;;;;;;8.07;2.00;;;10.50;99.90;;;;;;6364076;22;20090;-72
2023/04/11 11:39:27;;;;;;;6.00;1.83;;;10.50;99.90;;;;;;6335638;22;20431;-72
2023/04/11 11:41:54;;;;;;;5.45;1.65;;;10.40;99.90;;;;;;6363226;22;20548;-71
2023/04/11 11:44:28;;;;;;;7.97;2.60;;;10.50;99.90;;;;;;6364177;22;20325;-72
2023/04/11 11:47:07;;;;;;;6.38;2.22;;;10.50;99.90;;;;;;6364105;22;20565;-72
2023/04/11 11:49:54;;;;;;;8.73;3.10;;;10.60;99.90;;;;;;6363408;22;20033;-72
2023/04/11 11:52:32;;;;;;;8.60;2.70;;;10.70;99.90;;;;;;6364699;22;20041;-72
2023/04/11 11:54:59;;;;;;;9.98;3.33;;;10.60;99.90;;;;;;6336056;22;20026;-72
2023/04/11 11:57:26;;;;;;;7.60;2.45;;;10.50;99.90;;;;;;6364109;22;20037;-73
2023/04/11 11:59:55;;;;;;;7.03;2.22;;;10.60;99.90;;;;;;6364610;22;20095;-73
2023/04/11 12:02:23;;;;;;;10.13;2.67;;;10.70;99.90;;;;;;6364033;22;20014;-73
2023/04/11 12:04:49;;;;;;;10.45;3.05;;;10.80;99.90;;;;;;6364392;22;20071;-73
2023/04/11 12:07:20;;;;;;;14.27;2.15;;;10.90;99.90;;;;;;6336603;22;20416;-73
2023/04/11 12:10:00;;;;;;;7.13;2.63;;;10.90;99.90;;;;;;6364684;22;20106;-73
2023/04/11 12:12:39;;;;;;;6.30;2.13;;;10.90;99.90;;;;;;6337427;22;20397;-72
2023/04/11 12:15:19;;;;;;;8.13;1.65;;;11.00;99.90;;;;;;6365085;22;20052;-74
2023/04/11 12:17:53;;;;;;;6.30;2.10;;;11.10;99.90;;;;;;6366693;22;20071;-73
2023/04/11 12:20:23;;;;;;;10.77;2.55;;;11.00;99.90;;;;;;6365981;22;20094;-73
2023/04/11 12:22:49;;;;;;;12.25;2.90;;;11.10;99.90;;;;;;6337207;22;20125;-73
2023/04/11 12:25:15;;;;;;;14.15;3.83;;;11.00;99.90;;;;;;6337072;22;20378;-73
2023/04/11 12:27:43;;;;;;;6.47;1.90;;;11.10;99.90;;;;;;6336830;22;20097;-74
2023/04/11 12:30:10;;;;;;;5.93;2.00;;;11.10;99.90;;;;;;6364613;22;20377;-72
2023/04/11 12:32:36;;;;;;;6.28;1.70;;;11.20;99.90;;;;;;6335814;22;20018;-72
2023/04/11 12:35:04;;;;;;;4.43;1.58;;;11.20;99.90;;;;;;6364491;22;20022;-73
2023/04/11 12:37:30;;;;;;;6.80;2.28;;;11.20;99.90;;;;;;6335800;22;20568;-72
2023/04/11 12:39:56;;;;;;;8.00;2.97;;;11.20;99.90;;;;;;6363887;22;20041;-73
2023/04/11 12:42:22;;;;;;;6.70;1.92;;;11.30;99.90;;;;;;6335985;22;20287;-74
2023/04/11 12:44:49;;;;;;;6.30;1.75;;;11.30;99.90;;;;;;6336096;22;20018;-74
2023/04/11 12:47:15;;;;;;;12.35;2.63;;;11.30;99.90;;;;;;6336043;22;20022;-74
2023/04/11 12:49:41;;;;;;;8.23;2.05;;;11.30;99.90;;;;;;6336449;22;20018;-74
2023/04/11 12:52:08;;;;;;;13.43;3.00;;;11.40;99.90;;;;;;6336315;22;20025;-74
2023/04/11 12:54:34;;;;;;;7.43;2.38;;;11.40;99.90;;;;;;6364607;22;20014;-74
2023/04/11 12:57:01;;;;;;;12.60;2.85;;;11.40;99.90;;;;;;6336238;22;20101;-75